メインページ
METAR-TAF:

METAR-TAF

空港 :

ビルビル国際空港

Viru-Viru, ボリビア

緯度: 17-38S, 経度: 063-08W, 海抜: 373m

現時点の気象観測

当レポートは41分前の17:00(UTC)に作成
北/北西の風 13kt、最大23ktの突風を伴う
気温 29°C
湿度 70%
気圧 1013 hPa
視程10km以上
高度1500ftの雲は散在している
高度1700ftの千切れ雲あり
高度20000ftの千切れ雲あり

METAR: SLVR 171700Z 33013G23KT 9999 SCT015 BKN017 BKN200 29/23 Q1013

時間: 13:41 (17:41 UTC)

予報

当レポートは51分前の16:50(UTC)に作成
予報は17日の 18時(UTC)から 18日の 18時(UTC)まで有効
の風 15kt、最大25ktの突風を伴う
視程10km以上
高度2000ftの千切れ雲あり
高度2700ftの雲はほとんどない, 塔状積雲.
17日の 19時(UTC)から 17日の 23時(UTC)まで一時的に
視程: 6000m
にわか雨
17日の 23時(UTC)から 18日の 01時(UTC)まで徐々に
高度1500ftの雲は散在している
高度7000ftの千切れ雲あり
18日の 09時(UTC)から 18日の 12時(UTC)まで徐々に
高度500ftの千切れ雲あり
18日の 14時(UTC)から 18日の 16時(UTC)まで徐々に
の風 15kt、最大25ktの突風を伴う
高度2000ftの千切れ雲あり
高度2700ftの雲はほとんどない, 塔状積雲.

TAF: SLVR 171650Z 1718/1818 35015G25KT 9999 BKN020 FEW027TCU TX32/1719Z TN22/1810Z TEMPO 1719/1723 6000 SHRA BECMG 1723/1801 SCT015 BKN070 BECMG 1809/1812 BKN005 BECMG 1814/1816 35015G25KT BKN020 FEW027TCU

4,000以上の空港の気象観測と天気予報(METAR報とTAF報)

利用可能な観測所は地図上に黄色い丸と赤い丸で示す。

丸の上にカーソルを重ねると観測所名を参照できる。

次にクリックすると気象観測と天気予報を参照できる。

マップの切り替え:黒色「×」印の緑ボタンをクリックして拡大、「-」印の緑ボタンをクリックして縮小、緑色の三角印をクリックして隣りの地図に切り替え


METAR-TAF: